createdAt,value
2019-05-07T00:00:43.877Z,88.00
2019-05-07T00:03:13.210Z,87.90
2019-05-07T00:05:42.891Z,87.80
2019-05-07T00:08:12.269Z,87.70
2019-05-07T00:10:42.459Z,87.50
2019-05-07T00:13:12.913Z,87.30
2019-05-07T00:15:42.253Z,87.20
2019-05-07T00:18:12.686Z,87.00
2019-05-07T00:20:42.467Z,87.10
2019-05-07T00:23:12.412Z,87.00
2019-05-07T00:25:42.328Z,86.80
2019-05-07T00:28:12.202Z,86.70
2019-05-07T00:30:42.439Z,86.40
2019-05-07T00:33:13.179Z,86.50
2019-05-07T00:35:47.153Z,86.80
2019-05-07T00:38:18.065Z,86.80
2019-05-07T00:40:48.994Z,87.00
2019-05-07T00:43:19.906Z,87.20
2019-05-07T00:45:52.736Z,87.20
2019-05-07T00:48:23.461Z,87.30
2019-05-07T00:50:54.565Z,87.00
2019-05-07T00:53:23.881Z,87.00
2019-05-07T00:55:53.173Z,87.30
2019-05-07T00:58:26.481Z,87.30
2019-05-07T01:00:53.432Z,87.40
2019-05-07T01:03:22.693Z,87.60
2019-05-07T01:05:52.681Z,87.50
2019-05-07T01:08:22.663Z,87.40
2019-05-07T01:10:53.136Z,87.70
2019-05-07T01:13:23.352Z,87.90
2019-05-07T01:15:53.392Z,87.90
2019-05-07T01:18:23.412Z,87.70
2019-05-07T01:20:54.082Z,87.60
2019-05-07T01:23:23.537Z,87.60
2019-05-07T01:25:52.920Z,87.60
2019-05-07T01:28:22.539Z,87.40
2019-05-07T01:30:52.750Z,87.40
2019-05-07T01:33:39.151Z,87.40
2019-05-07T01:36:13.307Z,87.50
2019-05-07T01:38:42.819Z,87.20
2019-05-07T01:41:12.582Z,87.40
2019-05-07T01:43:42.967Z,87.40
2019-05-07T01:46:12.466Z,87.30
2019-05-07T01:48:42.921Z,87.50
2019-05-07T01:51:13.330Z,87.20
2019-05-07T01:53:43.088Z,87.20
2019-05-07T01:56:12.572Z,87.10
2019-05-07T01:58:42.511Z,87.20
2019-05-07T02:01:13.065Z,87.40
2019-05-07T02:03:47.152Z,87.60
2019-05-07T02:06:27.090Z,87.80
2019-05-07T02:09:13.096Z,87.90
2019-05-07T02:11:46.890Z,87.90
2019-05-07T02:14:16.153Z,88.10
2019-05-07T02:16:45.423Z,88.30
2019-05-07T02:19:14.698Z,88.50
2019-05-07T02:21:43.951Z,88.40
2019-05-07T02:24:13.258Z,88.30
2019-05-07T02:26:42.831Z,88.30
2019-05-07T02:29:12.365Z,88.10
2019-05-07T02:31:44.253Z,87.90
2019-05-07T02:34:14.175Z,88.00
2019-05-07T02:36:44.613Z,88.40
2019-05-07T02:39:15.544Z,88.30
2019-05-07T02:41:44.894Z,88.30
2019-05-07T02:44:14.385Z,88.20
2019-05-07T02:46:45.418Z,88.20
2019-05-07T02:49:28.281Z,88.20
2019-05-07T02:52:04.137Z,88.00
2019-05-07T02:54:53.938Z,88.00
2019-05-07T02:57:24.015Z,88.00
2019-05-07T02:59:54.755Z,88.10
2019-05-07T03:02:24.999Z,88.10
2019-05-07T03:04:54.258Z,87.90
2019-05-07T03:07:24.261Z,87.80
2019-05-07T03:09:54.038Z,87.70
2019-05-07T03:12:23.937Z,87.90
2019-05-07T03:14:53.880Z,87.90
2019-05-07T03:17:24.535Z,88.00
2019-05-07T03:19:55.570Z,88.00
2019-05-07T03:22:24.865Z,87.80
2019-05-07T03:24:55.822Z,87.80
2019-05-07T03:27:25.106Z,87.80
2019-05-07T03:30:04.359Z,87.70
2019-05-07T03:32:38.051Z,87.70
2019-05-07T03:35:16.188Z,88.00
2019-05-07T03:37:45.828Z,87.90
2019-05-07T03:40:15.339Z,88.30
2019-05-07T03:42:44.680Z,88.40
2019-05-07T03:45:18.120Z,88.50
2019-05-07T03:47:54.185Z,88.50
2019-05-07T03:50:23.302Z,88.80
2019-05-07T03:52:54.316Z,89.00
2019-05-07T03:55:23.881Z,89.00
2019-05-07T03:57:53.159Z,88.60
2019-05-07T04:00:23.893Z,88.50
2019-05-07T04:02:54.965Z,88.30
2019-05-07T04:05:24.214Z,88.10
2019-05-07T04:07:54.121Z,88.10
2019-05-07T04:10:23.561Z,88.30
2019-05-07T04:12:53.319Z,88.50
2019-05-07T04:15:23.479Z,88.40
2019-05-07T04:17:54.181Z,88.40
2019-05-07T04:20:24.118Z,88.20
2019-05-07T04:22:53.797Z,88.20
2019-05-07T04:25:27.650Z,88.10
2019-05-07T04:28:03.740Z,88.10
2019-05-07T04:30:33.306Z,88.10
2019-05-07T04:33:04.306Z,87.80
2019-05-07T04:35:35.241Z,88.00
2019-05-07T04:38:06.991Z,88.10
2019-05-07T04:40:35.477Z,88.10
2019-05-07T04:43:04.742Z,88.30
2019-05-07T04:45:34.108Z,88.50
2019-05-07T04:48:03.463Z,88.90
2019-05-07T04:50:42.573Z,89.00
2019-05-07T04:53:05.381Z,89.10
2019-05-07T04:55:34.660Z,89.10
2019-05-07T04:58:08.727Z,89.00
2019-05-07T05:00:35.159Z,88.70
2019-05-07T05:03:14.622Z,88.20
2019-05-07T05:05:43.899Z,88.50
2019-05-07T05:08:13.542Z,88.80
2019-05-07T05:10:43.528Z,88.70
2019-05-07T05:13:13.310Z,88.70
2019-05-07T05:15:43.566Z,88.70
2019-05-07T05:18:13.004Z,88.80
2019-05-07T05:20:56.161Z,88.80
2019-05-07T05:23:32.810Z,89.10
2019-05-07T05:26:02.093Z,89.10
2019-05-07T05:28:32.366Z,89.00
2019-05-07T05:31:03.486Z,89.20
2019-05-07T05:33:32.785Z,88.80
2019-05-07T05:36:03.067Z,88.80
2019-05-07T05:38:33.104Z,88.30
2019-05-07T05:41:02.882Z,88.60
2019-05-07T05:43:33.863Z,88.80
2019-05-07T05:46:07.282Z,88.80
2019-05-07T05:48:36.544Z,89.00
2019-05-07T05:51:07.453Z,89.30
2019-05-07T05:53:43.180Z,89.00
2019-05-07T05:56:13.549Z,88.80
2019-05-07T05:58:47.589Z,88.80
2019-05-07T06:01:27.778Z,88.80
2019-05-07T06:04:14.980Z,88.70
2019-05-07T06:06:45.889Z,88.80
2019-05-07T06:09:28.706Z,88.60
2019-05-07T06:12:02.922Z,88.50
2019-05-07T06:14:33.938Z,88.10
2019-05-07T06:17:22.420Z,88.00
2019-05-07T06:19:59.515Z,88.20
2019-05-07T06:22:48.564Z,87.90
2019-05-07T06:25:24.617Z,88.50
2019-05-07T06:27:53.490Z,88.60
2019-05-07T06:30:22.918Z,88.20
2019-05-07T06:32:52.442Z,88.40
2019-05-07T06:35:22.987Z,88.60
2019-05-07T06:37:52.589Z,87.80
2019-05-07T06:40:27.581Z,87.20
2019-05-07T06:43:06.025Z,86.70
2019-05-07T06:45:43.753Z,86.40
2019-05-07T06:48:13.026Z,86.20
2019-05-07T06:50:43.945Z,86.60
2019-05-07T06:53:13.222Z,86.60
2019-05-07T06:55:42.838Z,86.60
2019-05-07T06:58:12.499Z,86.30
2019-05-07T07:00:43.408Z,86.50
2019-05-07T07:03:16.986Z,86.20
2019-05-07T07:05:47.953Z,85.90
2019-05-07T07:08:18.871Z,85.40
2019-05-07T07:11:02.641Z,85.50
2019-05-07T07:13:32.454Z,85.60
2019-05-07T07:16:02.010Z,85.50
2019-05-07T07:18:32.365Z,85.00
2019-05-07T07:21:02.536Z,84.90
2019-05-07T07:23:32.519Z,84.80
2019-05-07T07:26:03.246Z,84.70
2019-05-07T07:28:33.849Z,84.60
2019-05-07T07:31:13.433Z,84.20
2019-05-07T07:33:44.359Z,83.90
2019-05-07T07:36:13.638Z,83.90
2019-05-07T07:38:42.909Z,84.00
2019-05-07T07:41:32.505Z,82.50
2019-05-07T07:44:02.117Z,81.60
2019-05-07T07:46:32.984Z,81.30
2019-05-07T07:49:10.623Z,81.10
2019-05-07T07:51:41.550Z,80.80
2019-05-07T07:54:05.481Z,80.70
2019-05-07T07:56:48.872Z,80.20
2019-05-07T07:59:24.938Z,80.10
2019-05-07T08:01:55.845Z,79.90
2019-05-07T08:04:25.158Z,80.30
2019-05-07T08:07:03.317Z,79.80
2019-05-07T08:09:35.109Z,79.40
2019-05-07T08:12:06.162Z,79.40
2019-05-07T08:14:36.026Z,79.30
2019-05-07T08:17:06.993Z,78.80
2019-05-07T08:19:37.338Z,78.30
2019-05-07T08:22:06.673Z,77.90
2019-05-07T08:24:35.949Z,77.90
2019-05-07T08:27:05.221Z,77.60
2019-05-07T08:29:34.485Z,77.70
2019-05-07T08:32:22.316Z,77.90
2019-05-07T08:35:05.140Z,78.00
2019-05-07T08:37:34.405Z,77.70
2019-05-07T08:40:05.126Z,77.90
2019-05-07T08:42:34.392Z,77.20
2019-05-07T08:45:05.468Z,78.20
2019-05-07T08:47:36.362Z,77.80
2019-05-07T08:50:06.889Z,77.30
2019-05-07T08:52:36.145Z,76.50
2019-05-07T08:55:07.252Z,76.10
2019-05-07T08:57:36.677Z,75.80
2019-05-07T09:00:07.457Z,76.30
2019-05-07T09:02:36.725Z,75.30
2019-05-07T09:05:09.344Z,75.30
2019-05-07T09:07:39.843Z,74.10
2019-05-07T09:10:12.709Z,74.50
2019-05-07T09:12:42.980Z,74.40
2019-05-07T09:15:13.609Z,75.00
2019-05-07T09:17:42.869Z,75.70
2019-05-07T09:20:12.663Z,74.20
2019-05-07T09:22:42.762Z,74.70
2019-05-07T09:25:13.138Z,74.20
2019-05-07T09:27:44.162Z,73.30
2019-05-07T09:30:18.316Z,72.80
2019-05-07T09:32:58.116Z,72.70
2019-05-07T09:35:42.409Z,73.20
2019-05-07T09:38:12.947Z,72.50
2019-05-07T09:40:42.285Z,71.90
2019-05-07T09:43:11.859Z,72.30
2019-05-07T09:45:42.363Z,71.90
2019-05-07T09:48:12.810Z,71.40
2019-05-07T09:50:42.879Z,69.10
2019-05-07T09:53:12.740Z,68.00
2019-05-07T09:55:42.630Z,69.00
2019-05-07T09:58:12.617Z,69.50
2019-05-07T10:00:42.585Z,66.80
2019-05-07T10:03:12.918Z,67.70
2019-05-07T10:05:42.956Z,67.80
2019-05-07T10:08:13.001Z,66.30
2019-05-07T10:10:43.948Z,66.30
2019-05-07T10:13:14.850Z,66.20
2019-05-07T10:15:44.258Z,66.30
2019-05-07T10:18:14.977Z,66.70
2019-05-07T10:20:44.246Z,66.40
2019-05-07T10:23:19.615Z,66.10
2019-05-07T10:25:49.916Z,66.80
2019-05-07T10:28:19.777Z,66.60
2019-05-07T10:30:49.133Z,65.70
2019-05-07T10:33:18.484Z,66.70
2019-05-07T10:35:47.750Z,66.60
2019-05-07T10:38:17.035Z,66.10
2019-05-07T10:40:46.434Z,65.30
2019-05-07T10:43:15.789Z,64.90
2019-05-07T10:46:02.890Z,65.40
2019-05-07T10:48:33.806Z,64.30
2019-05-07T10:51:04.550Z,64.20
2019-05-07T10:53:34.188Z,65.10
2019-05-07T10:56:03.455Z,64.20
2019-05-07T10:58:32.742Z,64.30
2019-05-07T11:01:02.920Z,63.80
2019-05-07T11:03:32.669Z,63.80
2019-05-07T11:06:01.983Z,62.90
2019-05-07T11:08:32.890Z,62.60
2019-05-07T11:11:02.948Z,61.30
2019-05-07T11:13:33.460Z,62.30
2019-05-07T11:16:07.295Z,62.90
2019-05-07T11:18:42.655Z,62.90
2019-05-07T11:21:12.190Z,64.00
2019-05-07T11:23:41.864Z,62.40
2019-05-07T11:26:11.791Z,60.80
2019-05-07T11:28:41.292Z,61.70
2019-05-07T11:31:12.339Z,59.10
2019-05-07T11:33:41.707Z,60.10
2019-05-07T11:36:11.094Z,59.70
2019-05-07T11:38:41.844Z,59.50
2019-05-07T11:41:12.760Z,59.70
2019-05-07T11:43:46.433Z,58.20
2019-05-07T11:46:17.592Z,59.80
2019-05-07T11:48:51.204Z,59.80
2019-05-07T11:51:39.893Z,59.90
2019-05-07T11:54:16.196Z,60.50
2019-05-07T11:56:45.562Z,61.50
2019-05-07T11:59:14.841Z,60.60
2019-05-07T12:01:52.742Z,62.70
2019-05-07T12:04:22.118Z,63.60
2019-05-07T12:06:52.085Z,63.10
2019-05-07T12:09:21.860Z,61.70
2019-05-07T12:11:52.077Z,60.60
2019-05-07T12:14:30.516Z,60.40
2019-05-07T12:16:52.434Z,60.50
2019-05-07T12:19:22.645Z,60.60
2019-05-07T12:21:52.675Z,60.70
2019-05-07T12:24:22.364Z,60.60
2019-05-07T12:26:52.292Z,60.70
2019-05-07T12:29:22.096Z,61.30
2019-05-07T12:31:55.638Z,60.00
2019-05-07T12:34:25.824Z,60.60
2019-05-07T12:36:55.100Z,60.70
2019-05-07T12:39:24.381Z,61.10
2019-05-07T12:41:53.674Z,60.90
2019-05-07T12:44:22.943Z,60.90
2019-05-07T12:46:52.554Z,60.40
2019-05-07T12:49:22.202Z,61.20
2019-05-07T12:52:08.552Z,62.10
2019-05-07T12:54:56.961Z,60.60
2019-05-07T12:57:26.233Z,60.50
2019-05-07T12:59:58.205Z,59.50
2019-05-07T13:02:41.061Z,60.30
2019-05-07T13:05:09.221Z,60.00
2019-05-07T13:07:41.786Z,60.70
2019-05-07T13:10:11.166Z,59.50
2019-05-07T13:12:41.987Z,58.80
2019-05-07T13:15:23.890Z,58.40
2019-05-07T13:17:42.386Z,58.70
2019-05-07T13:20:12.188Z,59.10
2019-05-07T13:22:42.699Z,58.50
2019-05-07T13:25:12.635Z,58.20
2019-05-07T13:27:42.925Z,57.80
2019-05-07T13:30:12.891Z,58.70
2019-05-07T13:32:45.053Z,58.30
2019-05-07T13:35:14.502Z,58.80
2019-05-07T13:37:48.666Z,58.20
2019-05-07T13:40:25.722Z,58.50
2019-05-07T13:42:59.633Z,57.90
2019-05-07T13:45:39.456Z,58.70
2019-05-07T13:48:16.509Z,58.60
2019-05-07T13:50:46.883Z,60.00
2019-05-07T13:53:16.294Z,59.40
2019-05-07T13:55:45.723Z,57.80
2019-05-07T13:58:15.050Z,58.50
2019-05-07T14:01:04.897Z,58.90
2019-05-07T14:03:33.827Z,59.00
2019-05-07T14:06:04.569Z,59.40
2019-05-07T14:08:35.676Z,58.40
2019-05-07T14:11:05.005Z,58.80
2019-05-07T14:13:34.349Z,59.10
2019-05-07T14:16:12.058Z,58.70
2019-05-07T14:18:41.630Z,58.40
2019-05-07T14:21:12.972Z,59.30
2019-05-07T14:23:42.778Z,58.70
2019-05-07T14:26:12.205Z,58.00
2019-05-07T14:28:42.312Z,58.10
2019-05-07T14:31:12.712Z,58.60
2019-05-07T14:33:43.625Z,58.80
2019-05-07T14:36:31.998Z,59.90
2019-05-07T14:39:02.445Z,60.60
2019-05-07T14:41:33.506Z,60.40
2019-05-07T14:44:04.961Z,59.50
2019-05-07T14:46:43.966Z,59.90
2019-05-07T14:49:05.198Z,59.40
2019-05-07T14:51:34.596Z,59.30
2019-05-07T14:54:04.002Z,59.40
2019-05-07T14:56:33.720Z,59.40
2019-05-07T14:59:03.070Z,59.90
2019-05-07T15:01:33.938Z,59.90
2019-05-07T15:04:03.550Z,59.90
2019-05-07T15:06:33.254Z,60.30
2019-05-07T15:09:02.566Z,60.10
2019-05-07T15:11:33.971Z,59.40
2019-05-07T15:14:03.318Z,59.80
2019-05-07T15:16:32.654Z,59.50
2019-05-07T15:19:02.309Z,60.20
2019-05-07T15:21:32.326Z,59.90
2019-05-07T15:24:02.618Z,59.70
2019-05-07T15:26:32.664Z,60.00
2019-05-07T15:29:05.709Z,59.70
2019-05-07T15:31:39.342Z,60.50
2019-05-07T15:34:08.886Z,60.00
2019-05-07T15:36:38.170Z,59.70
2019-05-07T15:39:07.944Z,59.50
2019-05-07T15:41:38.424Z,59.90
2019-05-07T15:44:07.697Z,60.10
2019-05-07T15:46:36.957Z,60.00
2019-05-07T15:49:06.238Z,59.80
2019-05-07T15:51:35.557Z,59.50
2019-05-07T15:54:04.893Z,59.40
2019-05-07T15:56:34.168Z,59.60
2019-05-07T15:59:03.455Z,59.70
2019-05-07T16:01:32.734Z,60.10
2019-05-07T16:04:02.778Z,59.90
2019-05-07T16:06:32.477Z,59.50
2019-05-07T16:09:04.634Z,60.40
2019-05-07T16:11:34.178Z,61.80
2019-05-07T16:14:05.169Z,61.50
2019-05-07T16:16:36.183Z,61.20
2019-05-07T16:19:11.896Z,60.90
2019-05-07T16:21:42.508Z,61.10
2019-05-07T16:24:12.236Z,60.40
2019-05-07T16:26:41.992Z,60.50
2019-05-07T16:29:13.203Z,60.80
2019-05-07T16:31:44.203Z,60.60
2019-05-07T16:34:13.301Z,60.60
2019-05-07T16:36:42.921Z,60.30
2019-05-07T16:39:12.294Z,60.70
2019-05-07T16:41:42.302Z,60.50
2019-05-07T16:44:12.320Z,60.60
2019-05-07T16:46:42.162Z,62.10
2019-05-07T16:49:12.332Z,61.40
2019-05-07T16:51:44.608Z,61.40
2019-05-07T16:54:12.599Z,61.10
2019-05-07T16:56:59.722Z,61.50
2019-05-07T16:59:29.120Z,62.00
2019-05-07T17:02:00.031Z,61.90
2019-05-07T17:04:29.312Z,62.40
2019-05-07T17:07:02.051Z,62.10
2019-05-07T17:09:32.235Z,63.70
2019-05-07T17:12:03.939Z,63.70
2019-05-07T17:14:33.198Z,66.10
2019-05-07T17:17:02.590Z,65.70
2019-05-07T17:19:32.068Z,64.60
2019-05-07T17:22:02.815Z,65.50
2019-05-07T17:24:32.966Z,66.00
2019-05-07T17:27:02.428Z,66.80
2019-05-07T17:29:32.197Z,66.80
2019-05-07T17:32:01.754Z,66.20
2019-05-07T17:34:31.033Z,66.20
2019-05-07T17:37:01.941Z,66.30
2019-05-07T17:39:32.146Z,66.90
2019-05-07T17:42:02.519Z,67.40
2019-05-07T17:44:33.255Z,68.20
2019-05-07T17:47:02.571Z,68.70
2019-05-07T17:49:32.382Z,68.40
2019-05-07T17:52:02.943Z,67.90
2019-05-07T17:54:32.479Z,68.10
2019-05-07T17:57:02.091Z,67.60
2019-05-07T17:59:32.124Z,67.80
2019-05-07T18:02:03.278Z,67.90
2019-05-07T18:04:47.473Z,68.00
2019-05-07T18:07:05.254Z,67.90
2019-05-07T18:09:34.662Z,68.30
2019-05-07T18:12:03.935Z,68.70
2019-05-07T18:14:33.213Z,68.70
2019-05-07T18:17:04.117Z,68.80
2019-05-07T18:19:33.394Z,69.10
2019-05-07T18:22:03.902Z,69.10
2019-05-07T18:24:33.165Z,70.20
2019-05-07T18:27:04.065Z,70.80
2019-05-07T18:29:33.345Z,70.70
2019-05-07T18:32:04.246Z,70.60
2019-05-07T18:34:33.693Z,70.80
2019-05-07T18:37:02.966Z,70.70
2019-05-07T18:39:32.566Z,70.80
2019-05-07T18:42:02.823Z,71.80
2019-05-07T18:44:33.232Z,72.20
2019-05-07T18:47:02.607Z,72.80
2019-05-07T18:49:31.980Z,73.90
2019-05-07T18:52:02.850Z,74.60
2019-05-07T18:54:33.441Z,73.60
2019-05-07T18:57:02.714Z,73.40
2019-05-07T18:59:33.798Z,73.70
2019-05-07T19:02:03.470Z,74.20
2019-05-07T19:04:32.909Z,74.10
2019-05-07T19:07:02.673Z,73.60
2019-05-07T19:09:32.181Z,73.20
2019-05-07T19:12:01.590Z,73.20
2019-05-07T19:14:33.125Z,73.60
2019-05-07T19:17:03.205Z,74.50
2019-05-07T19:19:32.853Z,74.60
2019-05-07T19:22:02.331Z,74.40
2019-05-07T19:24:44.268Z,74.60
2019-05-07T19:27:02.631Z,74.20
2019-05-07T19:29:32.602Z,74.10
2019-05-07T19:32:03.193Z,74.00
2019-05-07T19:34:32.645Z,73.70
2019-05-07T19:37:02.594Z,74.00
2019-05-07T19:39:32.925Z,74.60
2019-05-07T19:42:02.727Z,74.60
2019-05-07T19:44:32.034Z,74.70
2019-05-07T19:47:01.997Z,74.50
2019-05-07T19:49:32.484Z,74.40
2019-05-07T19:52:02.940Z,74.80
2019-05-07T19:54:32.536Z,74.80
2019-05-07T19:57:02.737Z,75.30
2019-05-07T19:59:32.708Z,75.30
2019-05-07T20:02:04.717Z,75.50
2019-05-07T20:04:34.005Z,75.50
2019-05-07T20:07:04.350Z,75.40
2019-05-07T20:09:35.291Z,75.70
2019-05-07T20:12:08.009Z,76.20
2019-05-07T20:14:36.610Z,76.40
2019-05-07T20:17:06.960Z,76.00
2019-05-07T20:19:36.230Z,76.10
2019-05-07T20:22:05.508Z,76.30
2019-05-07T20:24:34.782Z,76.40
2019-05-07T20:27:04.145Z,76.80
2019-05-07T20:29:33.401Z,76.40
2019-05-07T20:32:02.681Z,76.50
2019-05-07T20:34:32.937Z,76.80
2019-05-07T20:37:02.769Z,76.70
2019-05-07T20:39:32.364Z,76.90
2019-05-07T20:42:03.048Z,76.90
2019-05-07T20:44:32.673Z,77.00
2019-05-07T20:47:02.028Z,77.10
2019-05-07T20:49:32.006Z,77.10
2019-05-07T20:52:01.544Z,77.30
2019-05-07T20:54:32.626Z,77.80
2019-05-07T20:57:03.626Z,77.70
2019-05-07T20:59:32.971Z,77.70
2019-05-07T21:02:02.426Z,77.80
2019-05-07T21:04:32.978Z,77.90
2019-05-07T21:07:02.463Z,77.90
2019-05-07T21:09:32.993Z,78.30
2019-05-07T21:12:02.346Z,77.80
2019-05-07T21:14:32.449Z,77.90
2019-05-07T21:17:01.968Z,78.00
2019-05-07T21:19:33.094Z,78.20
2019-05-07T21:22:02.486Z,78.10
2019-05-07T21:24:33.050Z,78.50
2019-05-07T21:27:02.774Z,78.50
2019-05-07T21:29:32.648Z,78.90
2019-05-07T21:32:03.350Z,79.10
2019-05-07T21:34:32.803Z,79.10
2019-05-07T21:37:03.305Z,79.10
2019-05-07T21:39:33.125Z,79.50
2019-05-07T21:42:02.652Z,79.10
2019-05-07T21:44:32.994Z,79.40
2019-05-07T21:47:03.863Z,80.00
2019-05-07T21:49:33.323Z,80.30
2019-05-07T21:52:02.624Z,80.40
2019-05-07T21:54:33.546Z,80.30
2019-05-07T21:57:04.449Z,80.60
2019-05-07T21:59:38.122Z,80.30
2019-05-07T22:02:09.293Z,80.10
2019-05-07T22:04:38.642Z,80.00
2019-05-07T22:07:07.915Z,80.00
2019-05-07T22:09:37.215Z,79.90
2019-05-07T22:12:06.507Z,79.70
2019-05-07T22:14:35.811Z,79.70
2019-05-07T22:17:05.552Z,79.70
2019-05-07T22:19:34.839Z,80.10
2019-05-07T22:22:04.101Z,80.30
2019-05-07T22:24:33.390Z,80.70
2019-05-07T22:27:04.214Z,80.90
2019-05-07T22:29:33.700Z,80.60
2019-05-07T22:32:16.520Z,80.20
2019-05-07T22:34:47.444Z,79.70
2019-05-07T22:37:18.325Z,79.30
2019-05-07T22:39:49.224Z,79.20
2019-05-07T22:42:23.037Z,79.30
2019-05-07T22:44:53.879Z,79.30
2019-05-07T22:47:23.166Z,79.10
2019-05-07T22:49:53.616Z,78.80
2019-05-07T22:52:23.259Z,78.60
2019-05-07T22:54:52.535Z,78.20
2019-05-07T22:57:23.433Z,78.50
2019-05-07T22:59:52.711Z,78.90
2019-05-07T23:02:22.835Z,79.10
2019-05-07T23:04:52.233Z,78.90
2019-05-07T23:07:22.318Z,78.60
2019-05-07T23:09:52.238Z,78.70
2019-05-07T23:12:22.071Z,78.80
2019-05-07T23:14:53.664Z,79.00
2019-05-07T23:17:22.443Z,79.20
2019-05-07T23:19:52.990Z,79.00
2019-05-07T23:22:22.802Z,78.90
2019-05-07T23:24:52.188Z,79.10
2019-05-07T23:27:22.664Z,78.90
2019-05-07T23:29:52.921Z,79.00
2019-05-07T23:32:22.421Z,79.30
2019-05-07T23:34:52.762Z,79.50
2019-05-07T23:37:22.604Z,79.50
2019-05-07T23:39:53.563Z,79.60
2019-05-07T23:42:35.975Z,79.80
2019-05-07T23:45:02.159Z,80.00
2019-05-07T23:47:32.385Z,79.90
2019-05-07T23:50:02.266Z,80.10
2019-05-07T23:52:31.602Z,80.40
2019-05-07T23:55:02.866Z,80.60
2019-05-07T23:57:32.507Z,80.70
